Time;durP1;ratioP1;P1;durP2;ratioP2;P2;SDS_P1;SDS_P2;PMS_P1;PMS_P2;Temp;Humidity;BMP_temperature;BMP_pressure;BME280_temperature;BME280_humidity;BME280_pressure;Samples;Min_cycle;Max_cycle;Signal;HPM_P1;HPM_P2
2023/08/06 00:01:59;;;;;;;8.30;5.40;;;;;;;;;;107852;1260;41535;-41
2023/08/06 00:04:53;;;;;;;7.00;5.20;;;;;;;;;;107897;1270;41320;-48
2023/08/06 00:07:49;;;;;;;7.40;5.40;;;;;;;;;;107887;1272;41707;-43
2023/08/06 00:10:48;;;;;;;7.90;5.60;;;;;;;;;;107898;1261;38911;-41
2023/08/06 00:13:43;;;;;;;8.80;5.50;;;;;;;;;;107880;1264;40248;-43
2023/08/06 00:16:47;;;;;;;8.50;5.80;;;;;;;;;;107915;1264;41215;-44
2023/08/06 00:19:49;;;;;;;9.10;6.00;;;;;;;;;;107951;1274;40395;-42
2023/08/06 00:22:47;;;;;;;8.50;6.80;;;;;;;;;;107916;1260;38773;-43
2023/08/06 00:25:45;;;;;;;8.30;6.50;;;;;;;;;;107965;1276;40509;-45
2023/08/06 00:28:40;;;;;;;8.90;6.80;;;;;;;;;;107950;1260;41175;-43
2023/08/06 00:31:37;;;;;;;9.40;7.00;;;;;;;;;;107963;1260;40471;-41
2023/08/06 00:34:32;;;;;;;8.80;6.70;;;;;;;;;;107882;1264;40106;-42
2023/08/06 00:37:29;;;;;;;8.60;6.20;;;;;;;;;;107934;1269;41303;-49
2023/08/06 00:40:28;;;;;;;8.90;6.80;;;;;;;;;;107820;1276;175810;-42
2023/08/06 00:43:12;;;;;;;8.50;6.40;;;;;;;;;;107901;1261;40398;-41
2023/08/06 00:46:10;;;;;;;9.70;7.00;;;;;;;;;;107962;1276;39119;-42
2023/08/06 00:49:07;;;;;;;8.00;6.40;;;;;;;;;;107923;1276;40181;-48
2023/08/06 00:52:10;;;;;;;8.20;6.70;;;;;;;;;;107964;1273;42561;-43
2023/08/06 00:55:08;;;;;;;7.80;6.90;;;;;;;;;;107906;1264;40654;-41
2023/08/06 00:57:52;;;;;;;7.60;6.40;;;;;;;;;;107832;1273;175530;-42
2023/08/06 01:00:53;;;;;;;8.50;6.30;;;;;;;;;;107954;1259;40179;-42
2023/08/06 01:03:52;;;;;;;8.20;6.20;;;;;;;;;;107917;1260;42545;-41
2023/08/06 01:06:53;;;;;;;8.10;6.30;;;;;;;;;;107972;1272;40581;-41
2023/08/06 01:10:21;;;;;;;8.00;6.50;;;;;;;;;;107935;1260;38843;-43
2023/08/06 01:13:30;;;;;;;6.90;5.90;;;;;;;;;;107908;1265;40228;-41
2023/08/06 01:16:29;;;;;;;7.90;6.20;;;;;;;;;;107921;1268;47423;-42
2023/08/06 01:19:31;;;;;;;8.40;6.40;;;;;;;;;;107981;1276;41505;-41
2023/08/06 01:22:29;;;;;;;7.40;6.10;;;;;;;;;;107943;1264;38643;-41
2023/08/06 01:25:34;;;;;;;7.90;6.10;;;;;;;;;;107886;1264;40437;-41
2023/08/06 01:28:41;;;;;;;7.10;5.80;;;;;;;;;;107936;1272;42555;-40
2023/08/06 01:31:42;;;;;;;7.20;5.80;;;;;;;;;;107955;1272;40378;-41
2023/08/06 01:34:46;;;;;;;6.70;6.00;;;;;;;;;;107895;1260;38878;-41
2023/08/06 01:37:30;;;;;;;7.10;5.80;;;;;;;;;;107930;1260;40446;-43
2023/08/06 01:40:33;;;;;;;7.70;5.90;;;;;;;;;;107920;1275;41178;-42
2023/08/06 01:43:32;;;;;;;7.40;5.90;;;;;;;;;;107967;1272;40588;-41
2023/08/06 01:46:26;;;;;;;7.90;6.20;;;;;;;;;;107857;1264;39178;-43
2023/08/06 01:49:24;;;;;;;7.00;5.80;;;;;;;;;;107918;1276;39956;-42
2023/08/06 01:52:22;;;;;;;7.50;5.70;;;;;;;;;;107931;1264;41170;-41
2023/08/06 01:55:22;;;;;;;7.20;5.60;;;;;;;;;;107885;1260;40312;-41
2023/08/06 01:58:17;;;;;;;6.30;5.30;;;;;;;;;;107951;1273;39023;-43
2023/08/06 02:01:15;;;;;;;6.90;5.50;;;;;;;;;;107962;1276;39939;-41
2023/08/06 02:04:10;;;;;;;6.30;5.30;;;;;;;;;;107277;1272;893413;-42
2023/08/06 02:07:06;;;;;;;7.00;5.50;;;;;;;;;;107724;1264;175108;-42
2023/08/06 02:10:07;;;;;;;6.80;5.60;;;;;;;;;;107903;1273;39032;-47
2023/08/06 02:13:02;;;;;;;6.80;5.50;;;;;;;;;;107911;1276;40411;-42
2023/08/06 02:15:51;;;;;;;6.40;5.10;;;;;;;;;;107883;1260;41354;-41
2023/08/06 02:18:46;;;;;;;6.90;5.10;;;;;;;;;;107964;1275;40303;-41
2023/08/06 02:21:40;;;;;;;6.10;5.10;;;;;;;;;;107995;1264;39166;-43
2023/08/06 02:24:40;;;;;;;6.50;5.30;;;;;;;;;;107983;1274;40207;-41
2023/08/06 02:27:39;;;;;;;6.70;5.50;;;;;;;;;;107870;1276;41063;-45
2023/08/06 02:30:33;;;;;;;6.30;5.10;;;;;;;;;;107963;1260;41451;-44
2023/08/06 02:33:31;;;;;;;6.20;4.80;;;;;;;;;;107918;1276;39021;-42
2023/08/06 02:36:31;;;;;;;6.00;4.70;;;;;;;;;;107906;1264;41556;-42
2023/08/06 02:39:33;;;;;;;6.00;4.80;;;;;;;;;;107908;1265;41185;-43
2023/08/06 02:42:28;;;;;;;6.60;5.20;;;;;;;;;;107896;1262;42300;-42
2023/08/06 02:45:26;;;;;;;6.00;4.60;;;;;;;;;;107873;1273;39078;-43
2023/08/06 02:48:28;;;;;;;6.40;4.90;;;;;;;;;;107730;1276;175567;-42
2023/08/06 02:51:23;;;;;;;5.90;4.50;;;;;;;;;;107873;1276;41406;-43
2023/08/06 02:54:20;;;;;;;5.90;4.90;;;;;;;;;;107899;1262;40549;-41
2023/08/06 02:57:14;;;;;;;6.00;4.60;;;;;;;;;;107851;1264;40147;-43
2023/08/06 03:00:14;;;;;;;5.70;4.80;;;;;;;;;;107857;1276;39946;-43
2023/08/06 03:03:16;;;;;;;5.60;4.80;;;;;;;;;;107904;1274;41523;-40
2023/08/06 03:06:14;;;;;;;5.80;5.00;;;;;;;;;;107796;1276;193772;-46
2023/08/06 03:09:10;;;;;;;5.80;4.60;;;;;;;;;;107869;1265;44300;-57
2023/08/06 03:12:09;;;;;;;6.10;4.80;;;;;;;;;;107920;1274;40425;-42
2023/08/06 03:15:05;;;;;;;6.20;4.80;;;;;;;;;;107902;1274;42650;-41
2023/08/06 03:18:01;;;;;;;5.70;4.60;;;;;;;;;;107882;1262;42603;-41
2023/08/06 03:20:58;;;;;;;5.60;4.50;;;;;;;;;;107932;1276;38890;-42
2023/08/06 03:23:54;;;;;;;5.90;4.60;;;;;;;;;;107928;1275;41389;-42
2023/08/06 03:26:54;;;;;;;6.00;4.60;;;;;;;;;;107950;1272;40959;-41
2023/08/06 03:29:43;;;;;;;7.20;4.80;;;;;;;;;;107826;1265;47804;-49
2023/08/06 03:32:29;;;;;;;6.20;4.80;;;;;;;;;;107908;1274;39004;-46
2023/08/06 03:35:25;;;;;;;6.20;5.00;;;;;;;;;;107876;1265;42775;-46
2023/08/06 03:38:24;;;;;;;5.70;4.80;;;;;;;;;;107857;1265;40989;-42
2023/08/06 03:41:28;;;;;;;6.40;5.00;;;;;;;;;;107976;1274;40403;-41
2023/08/06 03:44:26;;;;;;;7.10;5.20;;;;;;;;;;107968;1272;38674;-45
2023/08/06 03:47:22;;;;;;;6.50;5.50;;;;;;;;;;107911;1265;40340;-42
2023/08/06 03:50:19;;;;;;;6.50;5.40;;;;;;;;;;107922;1264;47044;-43
2023/08/06 03:53:17;;;;;;;6.90;5.50;;;;;;;;;;107938;1265;40519;-42
2023/08/06 03:56:15;;;;;;;7.10;6.20;;;;;;;;;;107937;1275;38848;-44
2023/08/06 03:59:15;;;;;;;6.60;5.90;;;;;;;;;;107891;1276;39884;-41
2023/08/06 04:02:13;;;;;;;7.90;6.40;;;;;;;;;;107905;1261;44322;-44
2023/08/06 04:05:11;;;;;;;6.40;5.50;;;;;;;;;;107891;1272;40528;-41
2023/08/06 04:08:07;;;;;;;7.20;6.10;;;;;;;;;;107918;1262;40159;-41
2023/08/06 04:11:02;;;;;;;7.10;6.10;;;;;;;;;;107855;1265;45795;-41
2023/08/06 04:14:03;;;;;;;7.50;6.40;;;;;;;;;;107869;1265;41157;-41
2023/08/06 04:16:59;;;;;;;8.10;6.60;;;;;;;;;;107889;1274;40346;-42
2023/08/06 04:19:58;;;;;;;8.70;6.70;;;;;;;;;;107891;1265;38883;-41
2023/08/06 04:23:06;;;;;;;9.40;7.40;;;;;;;;;;107934;1260;41361;-41
2023/08/06 04:26:09;;;;;;;9.40;8.00;;;;;;;;;;107962;1264;40956;-42
2023/08/06 04:29:07;;;;;;;10.40;8.70;;;;;;;;;;107939;1260;40481;-42
2023/08/06 04:32:06;;;;;;;10.50;8.50;;;;;;;;;;107894;1265;44906;-41
2023/08/06 04:35:07;;;;;;;9.90;8.30;;;;;;;;;;107242;1266;893138;-42
2023/08/06 04:38:02;;;;;;;10.10;8.60;;;;;;;;;;107880;1265;41636;-43
2023/08/06 04:41:08;;;;;;;10.70;8.40;;;;;;;;;;107868;1261;41472;-42
2023/08/06 04:44:09;;;;;;;9.90;8.90;;;;;;;;;;107873;1277;38982;-50
2023/08/06 04:47:25;;;;;;;10.60;8.90;;;;;;;;;;107912;1274;40207;-41
2023/08/06 04:50:22;;;;;;;10.50;9.00;;;;;;;;;;107847;1261;41490;-42
2023/08/06 04:53:23;;;;;;;10.20;8.60;;;;;;;;;;107952;1268;40323;-41
2023/08/06 04:56:33;;;;;;;9.90;8.80;;;;;;;;;;107960;1272;40068;-43
2023/08/06 04:59:27;;;;;;;10.50;8.90;;;;;;;;;;107952;1275;40165;-40
2023/08/06 05:02:25;;;;;;;10.00;9.00;;;;;;;;;;107843;1264;41379;-42
2023/08/06 05:05:22;;;;;;;10.60;9.30;;;;;;;;;;107904;1274;42248;-46
2023/08/06 05:08:22;;;;;;;10.80;9.30;;;;;;;;;;107901;1264;39005;-41
2023/08/06 05:11:18;;;;;;;12.00;10.00;;;;;;;;;;107871;1271;40430;-42
2023/08/06 05:14:23;;;;;;;10.40;9.30;;;;;;;;;;107941;1260;41295;-41
2023/08/06 05:17:25;;;;;;;10.50;9.40;;;;;;;;;;107941;1276;40272;-43
2023/08/06 05:20:22;;;;;;;10.60;9.60;;;;;;;;;;107966;1260;38754;-42
2023/08/06 05:23:18;;;;;;;11.10;9.60;;;;;;;;;;107915;1265;48050;-41
2023/08/06 05:26:19;;;;;;;11.20;10.00;;;;;;;;;;107959;1270;41411;-42
2023/08/06 05:29:17;;;;;;;10.50;9.40;;;;;;;;;;107974;1266;40375;-40
2023/08/06 05:32:17;;;;;;;12.20;9.20;;;;;;;;;;107922;1260;38987;-42
2023/08/06 05:35:17;;;;;;;11.10;9.60;;;;;;;;;;107952;1276;40252;-42
2023/08/06 05:38:20;;;;;;;11.10;10.00;;;;;;;;;;107963;1273;41564;-45
2023/08/06 05:41:18;;;;;;;11.30;9.90;;;;;;;;;;107922;1276;42599;-42
2023/08/06 05:44:18;;;;;;;10.80;9.70;;;;;;;;;;107896;1265;45183;-45
2023/08/06 05:47:16;;;;;;;11.00;9.90;;;;;;;;;;107959;1265;40288;-41
2023/08/06 05:50:20;;;;;;;10.70;9.70;;;;;;;;;;107935;1276;41091;-42
2023/08/06 05:53:14;;;;;;;10.80;9.70;;;;;;;;;;107798;1268;40230;-41
2023/08/06 05:56:10;;;;;;;10.90;9.80;;;;;;;;;;107909;1275;39038;-42
2023/08/06 05:59:09;;;;;;;11.00;9.90;;;;;;;;;;107935;1275;40182;-41
2023/08/06 06:02:08;;;;;;;12.20;11.00;;;;;;;;;;107918;1272;41403;-41
2023/08/06 06:05:04;;;;;;;11.30;10.20;;;;;;;;;;107896;1261;47463;-43
2023/08/06 06:08:13;;;;;;;11.40;10.30;;;;;;;;;;107939;1276;38914;-42
2023/08/06 06:11:09;;;;;;;10.90;9.90;;;;;;;;;;107923;1276;40092;-42
2023/08/06 06:14:05;;;;;;;11.30;10.20;;;;;;;;;;107914;1266;41736;-40
2023/08/06 06:17:00;;;;;;;11.40;10.30;;;;;;;;;;107937;1265;40384;-41
2023/08/06 06:19:55;;;;;;;11.10;10.00;;;;;;;;;;107930;1265;41108;-41
2023/08/06 06:22:51;;;;;;;11.20;10.10;;;;;;;;;;107938;1269;40229;-42
2023/08/06 06:25:51;;;;;;;11.60;10.50;;;;;;;;;;107710;1268;200292;-43
2023/08/06 06:28:49;;;;;;;11.80;10.60;;;;;;;;;;107883;1267;41459;-41
2023/08/06 06:31:52;;;;;;;11.60;10.50;;;;;;;;;;107886;1262;40107;-43
2023/08/06 06:34:59;;;;;;;11.30;10.20;;;;;;;;;;107887;1264;40419;-41
2023/08/06 06:38:19;;;;;;;11.50;10.40;;;;;;;;;;107938;1276;41395;-41
2023/08/06 06:41:16;;;;;;;11.20;10.10;;;;;;;;;;107950;1266;40298;-41
2023/08/06 06:44:14;;;;;;;11.10;10.00;;;;;;;;;;107896;1261;40121;-42
2023/08/06 06:47:12;;;;;;;11.20;10.10;;;;;;;;;;107911;1264;40751;-41
2023/08/06 06:50:10;;;;;;;11.40;10.30;;;;;;;;;;107906;1276;41234;-46
2023/08/06 06:53:09;;;;;;;11.10;10.00;;;;;;;;;;107884;1264;40993;-41
2023/08/06 06:56:08;;;;;;;11.10;10.10;;;;;;;;;;107886;1265;39209;-41
2023/08/06 06:59:11;;;;;;;11.30;10.20;;;;;;;;;;107937;1260;40364;-43
2023/08/06 07:02:10;;;;;;;11.30;10.20;;;;;;;;;;107937;1272;43604;-42
2023/08/06 07:05:10;;;;;;;11.60;10.50;;;;;;;;;;107891;1262;41861;-42
2023/08/06 07:07:56;;;;;;;10.70;9.70;;;;;;;;;;107892;1274;38986;-41
2023/08/06 07:11:00;;;;;;;10.80;9.90;;;;;;;;;;107871;1274;41549;-43
2023/08/06 07:14:02;;;;;;;11.60;10.50;;;;;;;;;;107901;1265;42438;-41
2023/08/06 07:17:01;;;;;;;11.20;10.10;;;;;;;;;;107838;1265;46168;-42
2023/08/06 07:20:00;;;;;;;11.00;9.90;;;;;;;;;;107891;1275;38960;-42
2023/08/06 07:22:58;;;;;;;10.70;9.70;;;;;;;;;;107906;1267;42473;-45
2023/08/06 07:25:53;;;;;;;10.80;9.70;;;;;;;;;;107844;1264;41190;-42
2023/08/06 07:28:55;;;;;;;11.10;10.10;;;;;;;;;;107902;1274;40304;-42
2023/08/06 07:31:58;;;;;;;11.30;10.20;;;;;;;;;;107913;1274;38845;-42
2023/08/06 07:35:00;;;;;;;11.10;10.00;;;;;;;;;;107878;1273;40278;-42
2023/08/06 07:37:57;;;;;;;10.70;9.70;;;;;;;;;;107852;1265;49317;-41
2023/08/06 07:40:57;;;;;;;10.60;9.50;;;;;;;;;;107879;1277;40210;-41
2023/08/06 07:43:51;;;;;;;10.70;9.70;;;;;;;;;;107906;1275;40161;-43
2023/08/06 07:46:48;;;;;;;11.00;10.00;;;;;;;;;;107863;1265;40420;-43
2023/08/06 07:49:42;;;;;;;10.80;9.90;;;;;;;;;;107888;1277;41343;-41
2023/08/06 07:52:22;;;;;;;11.10;10.00;;;;;;;;;;107897;1261;40836;-40
2023/08/06 07:55:22;;;;;;;11.10;10.10;;;;;;;;;;107875;1274;38952;-42
2023/08/06 07:58:16;;;;;;;11.50;10.40;;;;;;;;;;103858;1265;5408018;-41
2023/08/06 08:01:11;;;;;;;11.00;10.00;;;;;;;;;;107934;1260;41387;-42
2023/08/06 08:04:10;;;;;;;11.00;10.00;;;;;;;;;;107936;1262;40735;-42
2023/08/06 08:07:10;;;;;;;11.10;10.10;;;;;;;;;;107901;1266;38761;-41
2023/08/06 08:10:13;;;;;;;11.20;10.10;;;;;;;;;;107898;1265;40436;-47
2023/08/06 08:13:12;;;;;;;11.80;10.70;;;;;;;;;;107868;1273;41344;-41
2023/08/06 08:16:08;;;;;;;11.40;10.40;;;;;;;;;;107877;1274;40342;-42
2023/08/06 08:19:08;;;;;;;11.30;10.20;;;;;;;;;;107828;1274;44238;-44
2023/08/06 08:22:03;;;;;;;11.70;10.60;;;;;;;;;;107853;1276;39954;-42
2023/08/06 08:25:03;;;;;;;14.20;12.90;;;;;;;;;;107848;1266;41019;-41
2023/08/06 08:28:01;;;;;;;14.20;12.90;;;;;;;;;;107851;1265;40777;-45
2023/08/06 08:30:56;;;;;;;12.10;11.00;;;;;;;;;;107906;1276;39067;-42
2023/08/06 08:33:53;;;;;;;13.00;11.80;;;;;;;;;;107886;1276;41476;-40
2023/08/06 08:36:54;;;;;;;13.60;12.30;;;;;;;;;;107878;1274;41684;-42
2023/08/06 08:39:49;;;;;;;13.60;12.40;;;;;;;;;;107924;1273;45949;-41
2023/08/06 08:42:44;;;;;;;13.90;12.50;;;;;;;;;;107969;1270;39088;-50
2023/08/06 08:45:45;;;;;;;13.50;12.20;;;;;;;;;;107949;1266;40237;-43
2023/08/06 08:48:46;;;;;;;13.60;12.30;;;;;;;;;;107926;1276;41245;-42
2023/08/06 08:51:44;;;;;;;13.80;12.60;;;;;;;;;;107942;1275;40568;-41
2023/08/06 08:54:46;;;;;;;14.20;12.80;;;;;;;;;;107958;1266;38769;-44
2023/08/06 08:57:46;;;;;;;13.00;11.80;;;;;;;;;;107938;1270;40209;-41
2023/08/06 09:00:46;;;;;;;13.20;12.10;;;;;;;;;;107846;1267;47219;-41
2023/08/06 09:03:44;;;;;;;13.10;11.90;;;;;;;;;;107874;1276;40917;-42
2023/08/06 09:06:44;;;;;;;12.80;11.60;;;;;;;;;;107908;1266;38991;-43
2023/08/06 09:09:44;;;;;;;12.80;11.60;;;;;;;;;;107853;1265;40679;-41
2023/08/06 09:13:08;;;;;;;13.10;11.80;;;;;;;;;;107919;1269;41093;-48
2023/08/06 09:16:03;;;;;;;13.30;12.10;;;;;;;;;;107893;1272;40396;-42
2023/08/06 09:19:09;;;;;;;13.60;12.40;;;;;;;;;;107864;1262;38625;-43
2023/08/06 09:22:03;;;;;;;13.00;11.90;;;;;;;;;;107851;1275;40982;-42
2023/08/06 09:24:59;;;;;;;13.20;12.00;;;;;;;;;;107871;1277;41278;-45
2023/08/06 09:27:34;;;;;;;13.70;12.30;;;;;;;;;;107874;1262;41636;-43
2023/08/06 09:30:45;;;;;;;13.20;12.10;;;;;;;;;;107846;1265;39167;-43
2023/08/06 09:33:44;;;;;;;12.40;11.20;;;;;;;;;;107940;1262;40462;-41
2023/08/06 09:36:19;;;;;;;11.70;10.60;;;;;;;;;;107945;1276;41321;-41
2023/08/06 09:38:53;;;;;;;11.10;10.00;;;;;;;;;;107921;1276;40214;-41
2023/08/06 09:41:58;;;;;;;11.60;10.50;;;;;;;;;;107862;1266;46634;-42
2023/08/06 09:45:07;;;;;;;11.80;10.20;;;;;;;;;;107880;1276;40049;-45
2023/08/06 09:48:03;;;;;;;11.40;10.30;;;;;;;;;;107853;1270;42315;-43
2023/08/06 09:50:41;;;;;;;11.10;10.00;;;;;;;;;;107861;1267;40397;-42
2023/08/06 09:53:37;;;;;;;10.70;9.70;;;;;;;;;;107958;1276;38827;-46
2023/08/06 09:56:38;;;;;;;10.70;9.70;;;;;;;;;;107946;1266;41541;-42
2023/08/06 09:59:45;;;;;;;11.50;10.40;;;;;;;;;;107917;1276;41387;-42
2023/08/06 10:02:41;;;;;;;11.00;9.90;;;;;;;;;;107888;1265;47078;-45
2023/08/06 10:05:39;;;;;;;10.80;9.80;;;;;;;;;;107923;1276;38998;-41
2023/08/06 10:08:16;;;;;;;10.90;9.90;;;;;;;;;;107928;1272;40242;-42
2023/08/06 10:10:57;;;;;;;11.10;10.10;;;;;;;;;;107701;1262;175495;-43
2023/08/06 10:13:36;;;;;;;11.20;10.10;;;;;;;;;;107890;1267;40361;-41
2023/08/06 10:16:18;;;;;;;11.00;10.00;;;;;;;;;;107900;1274;38804;-41
2023/08/06 10:18:58;;;;;;;10.70;9.70;;;;;;;;;;107884;1276;40556;-42
2023/08/06 10:21:36;;;;;;;10.70;9.70;;;;;;;;;;107879;1266;41221;-43
2023/08/06 10:24:48;;;;;;;10.90;9.80;;;;;;;;;;107948;1273;40367;-44
2023/08/06 10:27:58;;;;;;;10.70;9.60;;;;;;;;;;107910;1266;39938;-41
2023/08/06 10:30:52;;;;;;;10.70;9.70;;;;;;;;;;107940;1265;41395;-44
2023/08/06 10:33:48;;;;;;;11.10;10.00;;;;;;;;;;107809;1274;47139;-45
2023/08/06 10:36:45;;;;;;;10.80;9.70;;;;;;;;;;107894;1277;40591;-42
2023/08/06 10:40:03;;;;;;;10.60;9.60;;;;;;;;;;107873;1274;38931;-43
2023/08/06 10:42:58;;;;;;;10.40;9.50;;;;;;;;;;107892;1266;40300;-41
2023/08/06 10:45:58;;;;;;;10.50;9.60;;;;;;;;;;107937;1276;41390;-41
2023/08/06 10:49:00;;;;;;;10.30;9.30;;;;;;;;;;107918;1274;41679;-45
2023/08/06 10:52:03;;;;;;;10.00;9.10;;;;;;;;;;107900;1266;38877;-43
2023/08/06 10:54:59;;;;;;;10.60;9.60;;;;;;;;;;107872;1263;45855;-44
2023/08/06 10:57:59;;;;;;;10.40;9.30;;;;;;;;;;107892;1276;41395;-41
2023/08/06 11:00:56;;;;;;;10.30;9.30;;;;;;;;;;107212;1272;892536;-43
2023/08/06 11:03:53;;;;;;;10.00;9.00;;;;;;;;;;107861;1266;40231;-44
2023/08/06 11:06:54;;;;;;;9.90;9.00;;;;;;;;;;107923;1276;40414;-45
2023/08/06 11:09:53;;;;;;;10.30;9.30;;;;;;;;;;107960;1276;41413;-41
2023/08/06 11:12:49;;;;;;;10.00;9.10;;;;;;;;;;107910;1275;40417;-43
2023/08/06 11:15:43;;;;;;;10.00;9.10;;;;;;;;;;107812;1273;45233;-46
2023/08/06 11:18:43;;;;;;;10.20;9.10;;;;;;;;;;107929;1275;40422;-42
2023/08/06 11:21:40;;;;;;;9.90;9.00;;;;;;;;;;107872;1276;42298;-42
2023/08/06 11:24:55;;;;;;;9.40;8.50;;;;;;;;;;107874;1269;40450;-41
2023/08/06 11:27:51;;;;;;;10.20;9.30;;;;;;;;;;107958;1267;38885;-45
2023/08/06 11:30:34;;;;;;;10.10;9.20;;;;;;;;;;107956;1260;41323;-45
2023/08/06 11:33:31;;;;;;;9.50;8.60;;;;;;;;;;107940;1272;41252;-42
2023/08/06 11:36:38;;;;;;;9.40;8.60;;;;;;;;;;107878;1277;48050;-42
2023/08/06 11:39:24;;;;;;;9.40;8.60;;;;;;;;;;107942;1267;39026;-42
2023/08/06 11:42:19;;;;;;;9.30;8.40;;;;;;;;;;107947;1260;41352;-50
2023/08/06 11:45:22;;;;;;;9.80;8.90;;;;;;;;;;107815;1267;175470;-41
2023/08/06 11:48:18;;;;;;;9.20;8.40;;;;;;;;;;107950;1273;40348;-46
2023/08/06 11:51:17;;;;;;;9.20;8.40;;;;;;;;;;107934;1276;38973;-42
2023/08/06 11:54:14;;;;;;;9.30;8.40;;;;;;;;;;107941;1276;40442;-42
2023/08/06 11:57:10;;;;;;;9.70;8.70;;;;;;;;;;107869;1264;47221;-41
2023/08/06 12:00:10;;;;;;;8.80;8.00;;;;;;;;;;107908;1276;40485;-42
2023/08/06 12:03:11;;;;;;;9.30;8.40;;;;;;;;;;107970;1273;39171;-41
2023/08/06 12:06:08;;;;;;;9.70;8.80;;;;;;;;;;107871;1266;40431;-42
2023/08/06 12:09:02;;;;;;;9.40;8.40;;;;;;;;;;107919;1267;41451;-43
2023/08/06 12:12:04;;;;;;;9.60;8.70;;;;;;;;;;107886;1273;40686;-44
2023/08/06 12:15:06;;;;;;;9.10;8.20;;;;;;;;;;107901;1273;39066;-41
2023/08/06 12:18:07;;;;;;;9.60;8.70;;;;;;;;;;107836;1276;46219;-46
2023/08/06 12:21:02;;;;;;;9.10;8.20;;;;;;;;;;107869;1276;41426;-41
2023/08/06 12:23:56;;;;;;;9.70;8.80;;;;;;;;;;107886;1276;40410;-43
2023/08/06 12:26:50;;;;;;;9.80;8.90;;;;;;;;;;107816;1273;40080;-43
2023/08/06 12:29:47;;;;;;;9.60;8.70;;;;;;;;;;107806;1277;40269;-45
2023/08/06 12:32:43;;;;;;;9.20;8.30;;;;;;;;;;107849;1276;41336;-44
2023/08/06 12:35:38;;;;;;;8.90;8.00;;;;;;;;;;107837;1265;41637;-43
2023/08/06 12:38:33;;;;;;;8.80;8.00;;;;;;;;;;107831;1270;44795;-44
2023/08/06 12:41:27;;;;;;;9.30;8.50;;;;;;;;;;107899;1276;40392;-53
2023/08/06 12:44:21;;;;;;;9.50;8.60;;;;;;;;;;107898;1276;41440;-49
2023/08/06 12:47:01;;;;;;;9.80;8.90;;;;;;;;;;107853;1260;41703;-42
2023/08/06 12:49:55;;;;;;;9.60;8.70;;;;;;;;;;107870;1273;40152;-45
2023/08/06 12:52:49;;;;;;;10.20;9.10;;;;;;;;;;107893;1261;40057;-43
2023/08/06 12:55:43;;;;;;;9.60;8.60;;;;;;;;;;107880;1276;42845;-43
2023/08/06 12:58:39;;;;;;;9.80;8.90;;;;;;;;;;107861;1274;41836;-43
2023/08/06 13:01:32;;;;;;;9.40;8.60;;;;;;;;;;107885;1276;39011;-43
2023/08/06 13:04:27;;;;;;;10.50;9.50;;;;;;;;;;107869;1276;40492;-42
2023/08/06 13:07:13;;;;;;;9.60;8.80;;;;;;;;;;107846;1260;43857;-47
2023/08/06 13:10:11;;;;;;;9.90;8.90;;;;;;;;;;107823;1277;40206;-45
2023/08/06 13:13:06;;;;;;;9.90;9.00;;;;;;;;;;107715;1261;175198;-45
2023/08/06 13:15:59;;;;;;;10.10;9.20;;;;;;;;;;107807;1276;41555;-44
2023/08/06 13:18:53;;;;;;;10.20;9.30;;;;;;;;;;107854;1264;41362;-47
2023/08/06 13:22:08;;;;;;;10.20;9.30;;;;;;;;;;107893;1273;40367;-42
2023/08/06 13:25:05;;;;;;;10.00;9.10;;;;;;;;;;107801;1273;174991;-42
2023/08/06 13:28:04;;;;;;;9.60;8.60;;;;;;;;;;107867;1261;41340;-41
2023/08/06 13:31:00;;;;;;;10.00;9.00;;;;;;;;;;107883;1262;41293;-43
2023/08/06 13:33:57;;;;;;;9.80;8.80;;;;;;;;;;107865;1276;41650;-45
2023/08/06 13:36:52;;;;;;;9.60;8.80;;;;;;;;;;107885;1265;39178;-44
2023/08/06 13:39:50;;;;;;;10.00;9.00;;;;;;;;;;107824;1264;45874;-42
2023/08/06 13:42:50;;;;;;;9.50;8.60;;;;;;;;;;107858;1276;41121;-42
2023/08/06 13:45:24;;;;;;;9.70;8.80;;;;;;;;;;107842;1276;40135;-45
2023/08/06 13:48:21;;;;;;;9.30;8.40;;;;;;;;;;107848;1260;38829;-43
2023/08/06 13:51:19;;;;;;;9.30;8.50;;;;;;;;;;107917;1264;40005;-41
2023/08/06 13:54:15;;;;;;;9.30;8.40;;;;;;;;;;107932;1264;41377;-42
2023/08/06 13:57:11;;;;;;;9.20;8.30;;;;;;;;;;107946;1276;40706;-45
2023/08/06 14:00:10;;;;;;;8.70;7.80;;;;;;;;;;107898;1266;40405;-41
2023/08/06 14:03:05;;;;;;;9.30;8.50;;;;;;;;;;107910;1264;41424;-42
2023/08/06 14:05:59;;;;;;;8.60;7.80;;;;;;;;;;107929;1276;41567;-42
2023/08/06 14:08:39;;;;;;;8.90;8.10;;;;;;;;;;107879;1261;40235;-41
2023/08/06 14:11:16;;;;;;;8.30;7.50;;;;;;;;;;107871;1261;38878;-42
2023/08/06 14:14:10;;;;;;;8.50;7.70;;;;;;;;;;107905;1264;40540;-42
2023/08/06 14:16:50;;;;;;;8.30;7.50;;;;;;;;;;107911;1264;41510;-44
2023/08/06 14:19:44;;;;;;;8.50;7.70;;;;;;;;;;107864;1264;40156;-44
2023/08/06 14:22:41;;;;;;;8.20;7.40;;;;;;;;;;107896;1276;38728;-41
2023/08/06 14:25:38;;;;;;;8.20;7.50;;;;;;;;;;107874;1276;41571;-44
2023/08/06 14:28:33;;;;;;;7.70;7.00;;;;;;;;;;107836;1275;42585;-45
2023/08/06 14:31:30;;;;;;;8.20;7.50;;;;;;;;;;107928;1276;49167;-42
2023/08/06 14:34:25;;;;;;;8.10;7.30;;;;;;;;;;107909;1267;39301;-42
2023/08/06 14:37:19;;;;;;;8.20;7.50;;;;;;;;;;107918;1267;40221;-42
2023/08/06 14:40:15;;;;;;;8.10;7.40;;;;;;;;;;107873;1260;41188;-45
2023/08/06 14:43:10;;;;;;;8.40;7.60;;;;;;;;;;107885;1270;40378;-42
2023/08/06 14:45:49;;;;;;;8.00;7.20;;;;;;;;;;107882;1270;39084;-42
2023/08/06 14:48:34;;;;;;;7.90;7.10;;;;;;;;;;107855;1272;40432;-42
2023/08/06 14:51:29;;;;;;;8.20;7.40;;;;;;;;;;107926;1276;41449;-41
2023/08/06 14:54:28;;;;;;;7.80;7.00;;;;;;;;;;107875;1267;44869;-44
2023/08/06 14:57:27;;;;;;;7.80;7.00;;;;;;;;;;107880;1275;39325;-43
2023/08/06 15:00:26;;;;;;;7.60;6.80;;;;;;;;;;107831;1260;40446;-41
2023/08/06 15:03:33;;;;;;;7.10;6.40;;;;;;;;;;107915;1276;42537;-41
2023/08/06 15:06:33;;;;;;;6.80;5.90;;;;;;;;;;107942;1274;40314;-42
2023/08/06 15:09:27;;;;;;;7.10;6.30;;;;;;;;;;107917;1273;38861;-44
2023/08/06 15:12:22;;;;;;;5.70;5.10;;;;;;;;;;107861;1267;45827;-38
2023/08/06 15:15:17;;;;;;;6.30;4.60;;;;;;;;;;107825;1275;41403;-41
2023/08/06 15:18:11;;;;;;;5.40;4.10;;;;;;;;;;107905;1276;40650;-38
2023/08/06 15:21:05;;;;;;;5.40;4.20;;;;;;;;;;107810;1266;38692;-41
2023/08/06 15:24:02;;;;;;;4.90;4.10;;;;;;;;;;107852;1272;40915;-41
2023/08/06 15:26:56;;;;;;;4.90;3.30;;;;;;;;;;107927;1273;41269;-43
2023/08/06 15:29:51;;;;;;;4.70;2.80;;;;;;;;;;107839;1273;40600;-39
2023/08/06 15:32:34;;;;;;;4.50;3.30;;;;;;;;;;107801;1267;38856;-41
2023/08/06 15:35:17;;;;;;;5.20;3.40;;;;;;;;;;107882;1273;40581;-49
2023/08/06 15:37:50;;;;;;;4.50;3.30;;;;;;;;;;107868;1275;41552;-39
2023/08/06 15:40:28;;;;;;;4.40;2.80;;;;;;;;;;107871;1274;41967;-40
2023/08/06 15:43:10;;;;;;;4.50;2.60;;;;;;;;;;107816;1263;45449;-43
2023/08/06 15:46:10;;;;;;;4.40;3.10;;;;;;;;;;107759;1276;40095;-45
2023/08/06 15:49:10;;;;;;;4.20;2.80;;;;;;;;;;107756;1270;43675;-45
2023/08/06 15:52:12;;;;;;;4.20;2.80;;;;;;;;;;107843;1267;40543;-45
2023/08/06 15:55:09;;;;;;;4.20;2.50;;;;;;;;;;107789;1276;38870;-45
2023/08/06 15:58:06;;;;;;;4.50;2.30;;;;;;;;;;107868;1273;40199;-43
2023/08/06 16:01:00;;;;;;;3.90;2.30;;;;;;;;;;107858;1270;41180;-45
2023/08/06 16:03:57;;;;;;;3.80;2.10;;;;;;;;;;107798;1263;47217;-44
2023/08/06 16:06:51;;;;;;;3.80;2.40;;;;;;;;;;107816;1270;38841;-47
2023/08/06 16:09:49;;;;;;;3.50;1.90;;;;;;;;;;107770;1267;40686;-43
2023/08/06 16:12:44;;;;;;;3.80;2.00;;;;;;;;;;107813;1265;41246;-43
2023/08/06 16:15:41;;;;;;;3.60;1.90;;;;;;;;;;107911;1274;41740;-51
2023/08/06 16:18:41;;;;;;;3.60;2.00;;;;;;;;;;107863;1276;40340;-43
2023/08/06 16:21:37;;;;;;;3.50;1.90;;;;;;;;;;107772;1275;40370;-46
2023/08/06 16:24:34;;;;;;;3.60;1.90;;;;;;;;;;107758;1267;47942;-46
2023/08/06 16:27:32;;;;;;;3.20;1.70;;;;;;;;;;107800;1267;40443;-46
2023/08/06 16:30:32;;;;;;;4.00;1.90;;;;;;;;;;107823;1275;41147;-44
2023/08/06 16:33:29;;;;;;;3.00;1.70;;;;;;;;;;107747;1276;40266;-42
2023/08/06 16:36:23;;;;;;;3.60;1.60;;;;;;;;;;107822;1273;41565;-45
2023/08/06 16:39:19;;;;;;;3.00;1.70;;;;;;;;;;107831;1276;40669;-45
2023/08/06 16:41:54;;;;;;;3.20;1.60;;;;;;;;;;107855;1277;39199;-43
2023/08/06 16:44:51;;;;;;;3.00;1.50;;;;;;;;;;107808;1267;41321;-44
2023/08/06 16:47:45;;;;;;;2.80;1.50;;;;;;;;;;107870;1262;42837;-43
2023/08/06 16:50:41;;;;;;;2.70;1.40;;;;;;;;;;107897;1276;40610;-45
2023/08/06 16:53:36;;;;;;;2.30;1.30;;;;;;;;;;107845;1264;39898;-43
2023/08/06 16:56:33;;;;;;;2.90;1.30;;;;;;;;;;107904;1261;40519;-45
2023/08/06 16:59:28;;;;;;;2.60;1.30;;;;;;;;;;107894;1264;41556;-45
2023/08/06 17:02:26;;;;;;;2.10;1.20;;;;;;;;;;107916;1261;40333;-43
2023/08/06 17:05:20;;;;;;;2.30;1.30;;;;;;;;;;107866;1259;46293;-45
2023/08/06 17:08:20;;;;;;;3.00;1.40;;;;;;;;;;107934;1264;41510;-46
2023/08/06 17:11:18;;;;;;;2.50;1.30;;;;;;;;;;107918;1272;41353;-44
2023/08/06 17:14:14;;;;;;;2.50;1.30;;;;;;;;;;107863;1263;40471;-45